sensor_id;sensor_type;location;lat;lon;timestamp;temperature;humidity
22674;DHT22;11504;43.334;21.918;2022-07-21T00:01:07;23.0;100.0
22674;DHT22;11504;43.334;21.918;2022-07-21T00:05:44;22.9;100.0
22674;DHT22;11504;43.334;21.918;2022-07-21T00:10:25;22.9;100.0
22674;DHT22;11504;43.334;21.918;2022-07-21T00:15:06;22.6;100.0
22674;DHT22;11504;43.334;21.918;2022-07-21T00:19:45;22.6;100.0
22674;DHT22;11504;43.334;21.918;2022-07-21T00:24:21;22.3;100.0
22674;DHT22;11504;43.334;21.918;2022-07-21T00:28:57;22.3;100.0
22674;DHT22;11504;43.334;21.918;2022-07-21T00:33:34;22.2;100.0
22674;DHT22;11504;43.334;21.918;2022-07-21T00:38:10;22.2;100.0
22674;DHT22;11504;43.334;21.918;2022-07-21T00:42:48;22.1;100.0
22674;DHT22;11504;43.334;21.918;2022-07-21T00:47:30;22.1;100.0
22674;DHT22;11504;43.334;21.918;2022-07-21T00:52:09;22.1;100.0
22674;DHT22;11504;43.334;21.918;2022-07-21T00:56:46;21.8;100.0
22674;DHT22;11504;43.334;21.918;2022-07-21T01:01:23;21.8;100.0
22674;DHT22;11504;43.334;21.918;2022-07-21T01:06:00;21.6;100.0
22674;DHT22;11504;43.334;21.918;2022-07-21T01:10:39;21.6;100.0
22674;DHT22;11504;43.334;21.918;2022-07-21T01:15:20;21.5;100.0
22674;DHT22;11504;43.334;21.918;2022-07-21T01:20:07;21.5;100.0
22674;DHT22;11504;43.334;21.918;2022-07-21T01:24:56;21.4;100.0
22674;DHT22;11504;43.334;21.918;2022-07-21T01:29:33;21.4;100.0
22674;DHT22;11504;43.334;21.918;2022-07-21T01:34:12;21.3;100.0
22674;DHT22;11504;43.334;21.918;2022-07-21T01:38:52;21.3;100.0
22674;DHT22;11504;43.334;21.918;2022-07-21T01:43:29;21.2;100.0
22674;DHT22;11504;43.334;21.918;2022-07-21T01:48:06;21.2;100.0
22674;DHT22;11504;43.334;21.918;2022-07-21T01:52:45;21.0;100.0
22674;DHT22;11504;43.334;21.918;2022-07-21T01:57:23;21.0;100.0
22674;DHT22;11504;43.334;21.918;2022-07-21T02:02:01;21.0;100.0
22674;DHT22;11504;43.334;21.918;2022-07-21T02:06:39;20.8;100.0
22674;DHT22;11504;43.334;21.918;2022-07-21T02:11:18;20.8;100.0
22674;DHT22;11504;43.334;21.918;2022-07-21T02:15:58;20.6;100.0
22674;DHT22;11504;43.334;21.918;2022-07-21T02:20:36;20.6;100.0
22674;DHT22;11504;43.334;21.918;2022-07-21T02:25:14;20.5;100.0
22674;DHT22;11504;43.334;21.918;2022-07-21T02:29:53;20.5;100.0
22674;DHT22;11504;43.334;21.918;2022-07-21T02:34:30;20.4;100.0
22674;DHT22;11504;43.334;21.918;2022-07-21T02:39:07;20.4;100.0
22674;DHT22;11504;43.334;21.918;2022-07-21T02:43:44;20.4;100.0
22674;DHT22;11504;43.334;21.918;2022-07-21T02:48:20;20.4;100.0
22674;DHT22;11504;43.334;21.918;2022-07-21T02:53:02;20.5;100.0
22674;DHT22;11504;43.334;21.918;2022-07-21T02:57:43;20.5;100.0
22674;DHT22;11504;43.334;21.918;2022-07-21T03:02:19;20.5;100.0
22674;DHT22;11504;43.334;21.918;2022-07-21T03:06:56;20.6;100.0
22674;DHT22;11504;43.334;21.918;2022-07-21T03:11:32;20.6;100.0
22674;DHT22;11504;43.334;21.918;2022-07-21T03:16:09;20.6;100.0
22674;DHT22;11504;43.334;21.918;2022-07-21T03:20:47;20.6;100.0
22674;DHT22;11504;43.334;21.918;2022-07-21T03:25:26;20.7;100.0
22674;DHT22;11504;43.334;21.918;2022-07-21T03:30:09;20.7;100.0
22674;DHT22;11504;43.334;21.918;2022-07-21T03:34:50;20.6;100.0
22674;DHT22;11504;43.334;21.918;2022-07-21T03:39:26;20.6;100.0
22674;DHT22;11504;43.334;21.918;2022-07-21T03:44:03;20.5;100.0
22674;DHT22;11504;43.334;21.918;2022-07-21T03:48:40;20.5;100.0
22674;DHT22;11504;43.334;21.918;2022-07-21T03:53:17;20.5;100.0
22674;DHT22;11504;43.334;21.918;2022-07-21T03:58:00;20.5;100.0
22674;DHT22;11504;43.334;21.918;2022-07-21T04:02:42;20.5;100.0
22674;DHT22;11504;43.334;21.918;2022-07-21T04:07:20;20.5;100.0
22674;DHT22;11504;43.334;21.918;2022-07-21T04:11:57;20.5;100.0
22674;DHT22;11504;43.334;21.918;2022-07-21T04:16:34;20.4;100.0
22674;DHT22;11504;43.334;21.918;2022-07-21T04:21:11;20.4;100.0
22674;DHT22;11504;43.334;21.918;2022-07-21T04:25:48;20.4;100.0
22674;DHT22;11504;43.334;21.918;2022-07-21T04:30:25;20.4;100.0
22674;DHT22;11504;43.334;21.918;2022-07-21T04:35:08;23.2;100.0
22674;DHT22;11504;43.334;21.918;2022-07-21T04:39:49;23.2;100.0
22674;DHT22;11504;43.334;21.918;2022-07-21T04:44:27;26.1;100.0
22674;DHT22;11504;43.334;21.918;2022-07-21T04:49:04;26.1;100.0
22674;DHT22;11504;43.334;21.918;2022-07-21T04:53:42;30.4;100.0
22674;DHT22;11504;43.334;21.918;2022-07-21T04:58:19;30.4;100.0
22674;DHT22;11504;43.334;21.918;2022-07-21T05:02:57;34.6;100.0
22674;DHT22;11504;43.334;21.918;2022-07-21T05:07:34;34.6;100.0
22674;DHT22;11504;43.334;21.918;2022-07-21T05:12:14;34.6;100.0
22674;DHT22;11504;43.334;21.918;2022-07-21T05:16:51;35.6;100.0
22674;DHT22;11504;43.334;21.918;2022-07-21T05:21:27;35.6;100.0
22674;DHT22;11504;43.334;21.918;2022-07-21T05:26:04;36.5;100.0
22674;DHT22;11504;43.334;21.918;2022-07-21T05:30:41;36.5;100.0
22674;DHT22;11504;43.334;21.918;2022-07-21T05:35:19;37.2;100.0
22674;DHT22;11504;43.334;21.918;2022-07-21T05:39:55;37.2;100.0
22674;DHT22;11504;43.334;21.918;2022-07-21T05:44:32;38.0;100.0
22674;DHT22;11504;43.334;21.918;2022-07-21T05:49:08;38.0;100.0
22674;DHT22;11504;43.334;21.918;2022-07-21T05:53:44;38.2;100.0
22674;DHT22;11504;43.334;21.918;2022-07-21T05:58:21;38.2;100.0
22674;DHT22;11504;43.334;21.918;2022-07-21T06:02:57;38.5;100.0
22674;DHT22;11504;43.334;21.918;2022-07-21T06:07:34;38.5;100.0
22674;DHT22;11504;43.334;21.918;2022-07-21T06:12:11;38.5;100.0
22674;DHT22;11504;43.334;21.918;2022-07-21T06:16:47;38.3;100.0
22674;DHT22;11504;43.334;21.918;2022-07-21T06:21:25;38.3;100.0
22674;DHT22;11504;43.334;21.918;2022-07-21T06:26:01;38.1;100.0
22674;DHT22;11504;43.334;21.918;2022-07-21T06:30:39;38.1;100.0
22674;DHT22;11504;43.334;21.918;2022-07-21T06:35:16;37.6;100.0
22674;DHT22;11504;43.334;21.918;2022-07-21T06:39:53;37.6;100.0
22674;DHT22;11504;43.334;21.918;2022-07-21T06:44:30;37.1;100.0
22674;DHT22;11504;43.334;21.918;2022-07-21T06:49:07;37.1;100.0
22674;DHT22;11504;43.334;21.918;2022-07-21T06:53:44;36.4;100.0
22674;DHT22;11504;43.334;21.918;2022-07-21T06:58:24;36.4;100.0
22674;DHT22;11504;43.334;21.918;2022-07-21T07:03:01;35.8;100.0
22674;DHT22;11504;43.334;21.918;2022-07-21T07:07:38;35.8;100.0
22674;DHT22;11504;43.334;21.918;2022-07-21T07:12:15;35.8;100.0
22674;DHT22;11504;43.334;21.918;2022-07-21T07:16:52;35.8;100.0
22674;DHT22;11504;43.334;21.918;2022-07-21T07:21:29;35.8;100.0
22674;DHT22;11504;43.334;21.918;2022-07-21T07:26:08;35.7;100.0
22674;DHT22;11504;43.334;21.918;2022-07-21T07:30:45;35.7;100.0
22674;DHT22;11504;43.334;21.918;2022-07-21T07:35:23;35.8;100.0
22674;DHT22;11504;43.334;21.918;2022-07-21T07:40:00;35.8;100.0
22674;DHT22;11504;43.334;21.918;2022-07-21T07:44:39;36.0;100.0
22674;DHT22;11504;43.334;21.918;2022-07-21T07:49:16;36.0;100.0
22674;DHT22;11504;43.334;21.918;2022-07-21T07:53:53;35.9;100.0
22674;DHT22;11504;43.334;21.918;2022-07-21T07:58:30;35.9;100.0
22674;DHT22;11504;43.334;21.918;2022-07-21T08:03:08;35.8;100.0
22674;DHT22;11504;43.334;21.918;2022-07-21T08:07:44;35.8;100.0
22674;DHT22;11504;43.334;21.918;2022-07-21T08:12:21;35.8;100.0
22674;DHT22;11504;43.334;21.918;2022-07-21T08:16:58;35.4;100.0
22674;DHT22;11504;43.334;21.918;2022-07-21T08:21:35;35.4;100.0
22674;DHT22;11504;43.334;21.918;2022-07-21T08:26:12;35.1;100.0
22674;DHT22;11504;43.334;21.918;2022-07-21T08:30:49;35.1;100.0
22674;DHT22;11504;43.334;21.918;2022-07-21T08:35:26;35.4;100.0
22674;DHT22;11504;43.334;21.918;2022-07-21T08:40:07;35.4;100.0
22674;DHT22;11504;43.334;21.918;2022-07-21T08:44:47;35.8;100.0
22674;DHT22;11504;43.334;21.918;2022-07-21T08:49:24;35.8;100.0
22674;DHT22;11504;43.334;21.918;2022-07-21T08:54:02;35.8;100.0
22674;DHT22;11504;43.334;21.918;2022-07-21T08:58:40;35.8;100.0
22674;DHT22;11504;43.334;21.918;2022-07-21T09:03:21;35.9;100.0
22674;DHT22;11504;43.334;21.918;2022-07-21T09:08:04;35.9;100.0
22674;DHT22;11504;43.334;21.918;2022-07-21T09:12:53;36.2;100.0
22674;DHT22;11504;43.334;21.918;2022-07-21T09:17:42;36.2;100.0
22674;DHT22;11504;43.334;21.918;2022-07-21T09:22:19;36.2;100.0
22674;DHT22;11504;43.334;21.918;2022-07-21T09:27:08;36.5;100.0
22674;DHT22;11504;43.334;21.918;2022-07-21T09:32:13;36.5;100.0
22674;DHT22;11504;43.334;21.918;2022-07-21T09:37:07;36.8;100.0
22674;DHT22;11504;43.334;21.918;2022-07-21T09:41:46;36.8;100.0
22674;DHT22;11504;43.334;21.918;2022-07-21T09:46:29;37.2;100.0
22674;DHT22;11504;43.334;21.918;2022-07-21T09:51:30;37.2;100.0
22674;DHT22;11504;43.334;21.918;2022-07-21T09:56:13;37.2;100.0
22674;DHT22;11504;43.334;21.918;2022-07-21T10:00:57;37.2;100.0
22674;DHT22;11504;43.334;21.918;2022-07-21T10:05:35;37.2;100.0
22674;DHT22;11504;43.334;21.918;2022-07-21T10:10:17;37.2;100.0
22674;DHT22;11504;43.334;21.918;2022-07-21T10:14:56;37.1;100.0
22674;DHT22;11504;43.334;21.918;2022-07-21T10:20:00;37.1;100.0
22674;DHT22;11504;43.334;21.918;2022-07-21T10:25:06;37.0;100.0
22674;DHT22;11504;43.334;21.918;2022-07-21T10:30:03;37.0;100.0
22674;DHT22;11504;43.334;21.918;2022-07-21T10:34:45;36.9;100.0
22674;DHT22;11504;43.334;21.918;2022-07-21T10:39:25;36.9;100.0
22674;DHT22;11504;43.334;21.918;2022-07-21T10:44:46;36.8;100.0
22674;DHT22;11504;43.334;21.918;2022-07-21T10:49:47;36.8;100.0
22674;DHT22;11504;43.334;21.918;2022-07-21T10:54:32;36.7;100.0
22674;DHT22;11504;43.334;21.918;2022-07-21T10:59:08;36.7;100.0
22674;DHT22;11504;43.334;21.918;2022-07-21T11:04:06;36.6;100.0
22674;DHT22;11504;43.334;21.918;2022-07-21T11:08:50;36.6;100.0
22674;DHT22;11504;43.334;21.918;2022-07-21T11:14:07;36.4;100.0
22674;DHT22;11504;43.334;21.918;2022-07-21T11:18:46;36.4;100.0
22674;DHT22;11504;43.334;21.918;2022-07-21T11:23:38;36.1;100.0
22674;DHT22;11504;43.334;21.918;2022-07-21T11:28:24;36.1;100.0
22674;DHT22;11504;43.334;21.918;2022-07-21T11:33:00;35.8;100.0
22674;DHT22;11504;43.334;21.918;2022-07-21T11:37:42;35.8;100.0
22674;DHT22;11504;43.334;21.918;2022-07-21T11:42:22;35.8;100.0
22674;DHT22;11504;43.334;21.918;2022-07-21T11:47:09;35.6;100.0
22674;DHT22;11504;43.334;21.918;2022-07-21T11:51:55;35.6;100.0
22674;DHT22;11504;43.334;21.918;2022-07-21T11:56:50;35.7;100.0
22674;DHT22;11504;43.334;21.918;2022-07-21T12:01:54;35.7;100.0
22674;DHT22;11504;43.334;21.918;2022-07-21T12:06:45;35.7;100.0
22674;DHT22;11504;43.334;21.918;2022-07-21T12:11:36;35.7;100.0
22674;DHT22;11504;43.334;21.918;2022-07-21T12:16:17;35.8;100.0
22674;DHT22;11504;43.334;21.918;2022-07-21T12:21:04;35.8;100.0
22674;DHT22;11504;43.334;21.918;2022-07-21T12:25:45;36.0;100.0
22674;DHT22;11504;43.334;21.918;2022-07-21T12:30:37;36.0;100.0
22674;DHT22;11504;43.334;21.918;2022-07-21T12:35:28;36.0;100.0
22674;DHT22;11504;43.334;21.918;2022-07-21T12:40:11;36.0;100.0
22674;DHT22;11504;43.334;21.918;2022-07-21T12:44:50;36.0;100.0
22674;DHT22;11504;43.334;21.918;2022-07-21T12:49:30;36.0;100.0
22674;DHT22;11504;43.334;21.918;2022-07-21T12:54:33;36.0;100.0
22674;DHT22;11504;43.334;21.918;2022-07-21T12:59:11;36.0;100.0
22674;DHT22;11504;43.334;21.918;2022-07-21T13:03:49;36.1;100.0
22674;DHT22;11504;43.334;21.918;2022-07-21T13:08:30;36.1;100.0
22674;DHT22;11504;43.334;21.918;2022-07-21T13:13:11;36.1;100.0
22674;DHT22;11504;43.334;21.918;2022-07-21T13:17:49;36.1;100.0
22674;DHT22;11504;43.334;21.918;2022-07-21T13:22:26;36.1;100.0
22674;DHT22;11504;43.334;21.918;2022-07-21T13:27:04;36.1;100.0
22674;DHT22;11504;43.334;21.918;2022-07-21T13:31:42;36.1;100.0
22674;DHT22;11504;43.334;21.918;2022-07-21T13:36:19;36.0;100.0
22674;DHT22;11504;43.334;21.918;2022-07-21T13:40:57;36.0;100.0
22674;DHT22;11504;43.334;21.918;2022-07-21T13:45:34;35.8;100.0
22674;DHT22;11504;43.334;21.918;2022-07-21T13:50:12;35.8;100.0
22674;DHT22;11504;43.334;21.918;2022-07-21T13:54:49;35.7;100.0
22674;DHT22;11504;43.334;21.918;2022-07-21T13:59:27;35.7;100.0
22674;DHT22;11504;43.334;21.918;2022-07-21T14:04:04;35.6;100.0
22674;DHT22;11504;43.334;21.918;2022-07-21T14:08:42;35.6;100.0
22674;DHT22;11504;43.334;21.918;2022-07-21T14:13:21;35.5;100.0
22674;DHT22;11504;43.334;21.918;2022-07-21T14:17:58;35.5;100.0
22674;DHT22;11504;43.334;21.918;2022-07-21T14:22:36;35.5;100.0
22674;DHT22;11504;43.334;21.918;2022-07-21T14:27:13;35.4;100.0
22674;DHT22;11504;43.334;21.918;2022-07-21T14:31:50;35.4;100.0
22674;DHT22;11504;43.334;21.918;2022-07-21T14:36:29;35.3;100.0
22674;DHT22;11504;43.334;21.918;2022-07-21T14:41:07;35.3;100.0
22674;DHT22;11504;43.334;21.918;2022-07-21T14:45:45;35.2;100.0
22674;DHT22;11504;43.334;21.918;2022-07-21T14:50:27;35.2;100.0
22674;DHT22;11504;43.334;21.918;2022-07-21T14:55:09;35.1;100.0
22674;DHT22;11504;43.334;21.918;2022-07-21T14:59:47;35.1;100.0
22674;DHT22;11504;43.334;21.918;2022-07-21T15:04:25;35.0;100.0
22674;DHT22;11504;43.334;21.918;2022-07-21T15:09:04;35.0;100.0
22674;DHT22;11504;43.334;21.918;2022-07-21T15:13:41;34.8;100.0
22674;DHT22;11504;43.334;21.918;2022-07-21T15:18:19;34.8;100.0
22674;DHT22;11504;43.334;21.918;2022-07-21T15:22:58;34.8;100.0
22674;DHT22;11504;43.334;21.918;2022-07-21T15:27:40;34.7;100.0
22674;DHT22;11504;43.334;21.918;2022-07-21T15:32:21;34.7;100.0
22674;DHT22;11504;43.334;21.918;2022-07-21T15:36:59;34.7;100.0
22674;DHT22;11504;43.334;21.918;2022-07-21T15:41:39;34.7;100.0
22674;DHT22;11504;43.334;21.918;2022-07-21T15:46:17;34.6;100.0
22674;DHT22;11504;43.334;21.918;2022-07-21T15:50:56;34.6;100.0
22674;DHT22;11504;43.334;21.918;2022-07-21T15:55:35;34.5;100.0
22674;DHT22;11504;43.334;21.918;2022-07-21T16:00:14;34.5;100.0
22674;DHT22;11504;43.334;21.918;2022-07-21T16:04:54;34.4;100.0
22674;DHT22;11504;43.334;21.918;2022-07-21T16:09:33;34.4;100.0
22674;DHT22;11504;43.334;21.918;2022-07-21T16:14:14;34.3;100.0
22674;DHT22;11504;43.334;21.918;2022-07-21T16:18:51;34.3;100.0
22674;DHT22;11504;43.334;21.918;2022-07-21T16:23:28;34.3;100.0
22674;DHT22;11504;43.334;21.918;2022-07-21T16:28:05;34.3;100.0
22674;DHT22;11504;43.334;21.918;2022-07-21T16:32:46;34.3;100.0
22674;DHT22;11504;43.334;21.918;2022-07-21T16:37:23;34.2;100.0
22674;DHT22;11504;43.334;21.918;2022-07-21T16:42:03;34.2;100.0
22674;DHT22;11504;43.334;21.918;2022-07-21T16:46:42;34.0;100.0
22674;DHT22;11504;43.334;21.918;2022-07-21T16:51:20;34.0;100.0
22674;DHT22;11504;43.334;21.918;2022-07-21T16:55:58;33.8;100.0
22674;DHT22;11504;43.334;21.918;2022-07-21T17:00:35;33.8;100.0
22674;DHT22;11504;43.334;21.918;2022-07-21T17:05:14;33.7;100.0
22674;DHT22;11504;43.334;21.918;2022-07-21T17:09:51;33.7;100.0
22674;DHT22;11504;43.334;21.918;2022-07-21T17:14:29;33.5;100.0
22674;DHT22;11504;43.334;21.918;2022-07-21T17:19:07;33.5;100.0
22674;DHT22;11504;43.334;21.918;2022-07-21T17:23:45;33.3;100.0
22674;DHT22;11504;43.334;21.918;2022-07-21T17:28:23;33.3;100.0
22674;DHT22;11504;43.334;21.918;2022-07-21T17:33:03;33.3;100.0
22674;DHT22;11504;43.334;21.918;2022-07-21T17:37:41;33.0;100.0
22674;DHT22;11504;43.334;21.918;2022-07-21T17:42:20;33.0;100.0
22674;DHT22;11504;43.334;21.918;2022-07-21T17:46:57;32.8;100.0
22674;DHT22;11504;43.334;21.918;2022-07-21T17:51:35;32.8;100.0
22674;DHT22;11504;43.334;21.918;2022-07-21T17:56:13;32.5;100.0
22674;DHT22;11504;43.334;21.918;2022-07-21T18:00:51;32.5;100.0
22674;DHT22;11504;43.334;21.918;2022-07-21T18:05:29;32.2;100.0
22674;DHT22;11504;43.334;21.918;2022-07-21T18:10:10;32.2;100.0
22674;DHT22;11504;43.334;21.918;2022-07-21T18:14:49;31.9;100.0
22674;DHT22;11504;43.334;21.918;2022-07-21T18:19:28;31.9;100.0
22674;DHT22;11504;43.334;21.918;2022-07-21T18:24:06;31.6;100.0
22674;DHT22;11504;43.334;21.918;2022-07-21T18:28:44;31.6;100.0
22674;DHT22;11504;43.334;21.918;2022-07-21T18:33:21;31.4;100.0
22674;DHT22;11504;43.334;21.918;2022-07-21T18:37:59;31.4;100.0
22674;DHT22;11504;43.334;21.918;2022-07-21T18:42:37;31.4;100.0
22674;DHT22;11504;43.334;21.918;2022-07-21T18:47:15;31.1;100.0
22674;DHT22;11504;43.334;21.918;2022-07-21T18:51:52;31.1;100.0
22674;DHT22;11504;43.334;21.918;2022-07-21T18:56:29;31.0;100.0
22674;DHT22;11504;43.334;21.918;2022-07-21T19:01:06;31.0;100.0
22674;DHT22;11504;43.334;21.918;2022-07-21T19:05:43;30.8;100.0
22674;DHT22;11504;43.334;21.918;2022-07-21T19:10:20;30.8;100.0
22674;DHT22;11504;43.334;21.918;2022-07-21T19:14:57;30.6;100.0
22674;DHT22;11504;43.334;21.918;2022-07-21T19:19:34;30.6;100.0
22674;DHT22;11504;43.334;21.918;2022-07-21T19:24:12;30.4;100.0
22674;DHT22;11504;43.334;21.918;2022-07-21T19:28:50;30.4;100.0
22674;DHT22;11504;43.334;21.918;2022-07-21T19:33:27;30.2;100.0
22674;DHT22;11504;43.334;21.918;2022-07-21T19:38:05;30.2;100.0
22674;DHT22;11504;43.334;21.918;2022-07-21T19:42:43;30.2;100.0
22674;DHT22;11504;43.334;21.918;2022-07-21T19:47:20;30.0;100.0
22674;DHT22;11504;43.334;21.918;2022-07-21T19:51:58;30.0;100.0
22674;DHT22;11504;43.334;21.918;2022-07-21T19:56:36;29.8;100.0
22674;DHT22;11504;43.334;21.918;2022-07-21T20:01:14;29.8;100.0
22674;DHT22;11504;43.334;21.918;2022-07-21T20:05:53;29.7;100.0
22674;DHT22;11504;43.334;21.918;2022-07-21T20:10:32;29.7;100.0
22674;DHT22;11504;43.334;21.918;2022-07-21T20:15:12;29.4;100.0
22674;DHT22;11504;43.334;21.918;2022-07-21T20:19:51;29.4;100.0
22674;DHT22;11504;43.334;21.918;2022-07-21T20:24:30;29.1;100.0
22674;DHT22;11504;43.334;21.918;2022-07-21T20:29:08;29.1;100.0
22674;DHT22;11504;43.334;21.918;2022-07-21T20:33:47;28.8;100.0
22674;DHT22;11504;43.334;21.918;2022-07-21T20:38:25;28.8;100.0
22674;DHT22;11504;43.334;21.918;2022-07-21T20:43:08;28.8;100.0
22674;DHT22;11504;43.334;21.918;2022-07-21T20:47:50;28.5;100.0
22674;DHT22;11504;43.334;21.918;2022-07-21T20:52:30;28.5;100.0
22674;DHT22;11504;43.334;21.918;2022-07-21T20:57:09;28.3;100.0
22674;DHT22;11504;43.334;21.918;2022-07-21T21:01:48;28.3;100.0
22674;DHT22;11504;43.334;21.918;2022-07-21T21:06:26;28.1;100.0
22674;DHT22;11504;43.334;21.918;2022-07-21T21:11:03;28.1;100.0
22674;DHT22;11504;43.334;21.918;2022-07-21T21:15:42;27.8;100.0
22674;DHT22;11504;43.334;21.918;2022-07-21T21:20:20;27.8;100.0
22674;DHT22;11504;43.334;21.918;2022-07-21T21:24:58;27.6;100.0
22674;DHT22;11504;43.334;21.918;2022-07-21T21:29:36;27.6;100.0
22674;DHT22;11504;43.334;21.918;2022-07-21T21:34:14;27.3;100.0
22674;DHT22;11504;43.334;21.918;2022-07-21T21:38:51;27.3;100.0
22674;DHT22;11504;43.334;21.918;2022-07-21T21:43:28;27.0;100.0
22674;DHT22;11504;43.334;21.918;2022-07-21T21:48:05;27.0;100.0
22674;DHT22;11504;43.334;21.918;2022-07-21T21:52:43;27.0;100.0
22674;DHT22;11504;43.334;21.918;2022-07-21T21:57:20;26.8;100.0
22674;DHT22;11504;43.334;21.918;2022-07-21T22:01:57;26.8;100.0
22674;DHT22;11504;43.334;21.918;2022-07-21T22:06:34;26.5;100.0
22674;DHT22;11504;43.334;21.918;2022-07-21T22:11:11;26.5;100.0
22674;DHT22;11504;43.334;21.918;2022-07-21T22:15:49;26.4;100.0
22674;DHT22;11504;43.334;21.918;2022-07-21T22:20:27;26.4;100.0
22674;DHT22;11504;43.334;21.918;2022-07-21T22:25:09;26.2;100.0
22674;DHT22;11504;43.334;21.918;2022-07-21T22:29:48;26.2;100.0
22674;DHT22;11504;43.334;21.918;2022-07-21T22:34:26;26.0;100.0
22674;DHT22;11504;43.334;21.918;2022-07-21T22:39:04;26.0;100.0
22674;DHT22;11504;43.334;21.918;2022-07-21T22:43:42;25.8;100.0
22674;DHT22;11504;43.334;21.918;2022-07-21T22:48:21;25.8;100.0
22674;DHT22;11504;43.334;21.918;2022-07-21T22:52:59;25.8;100.0
22674;DHT22;11504;43.334;21.918;2022-07-21T22:57:39;25.6;100.0
22674;DHT22;11504;43.334;21.918;2022-07-21T23:02:16;25.6;100.0
22674;DHT22;11504;43.334;21.918;2022-07-21T23:06:54;25.3;100.0
22674;DHT22;11504;43.334;21.918;2022-07-21T23:11:31;25.3;100.0
22674;DHT22;11504;43.334;21.918;2022-07-21T23:16:10;25.0;100.0
22674;DHT22;11504;43.334;21.918;2022-07-21T23:20:48;25.0;100.0
22674;DHT22;11504;43.334;21.918;2022-07-21T23:25:27;24.7;100.0
22674;DHT22;11504;43.334;21.918;2022-07-21T23:30:09;24.7;100.0
22674;DHT22;11504;43.334;21.918;2022-07-21T23:34:51;24.6;100.0
22674;DHT22;11504;43.334;21.918;2022-07-21T23:39:30;24.6;100.0
22674;DHT22;11504;43.334;21.918;2022-07-21T23:44:08;24.6;100.0
22674;DHT22;11504;43.334;21.918;2022-07-21T23:48:46;24.6;100.0
22674;DHT22;11504;43.334;21.918;2022-07-21T23:53:23;24.6;100.0
22674;DHT22;11504;43.334;21.918;2022-07-21T23:58:01;24.6;100.0
